sensor_id;sensor_type;location;lat;lon;timestamp;P1;durP1;ratioP1;P2;durP2;ratioP2
13588;SDS011;6865;52.552;13.434;2023-06-14T00:01:40;4.10;;;3.30;;
13588;SDS011;6865;52.552;13.434;2023-06-14T00:04:06;5.10;;;3.20;;
13588;SDS011;6865;52.552;13.434;2023-06-14T00:06:34;6.43;;;3.10;;
13588;SDS011;6865;52.552;13.434;2023-06-14T00:09:01;6.37;;;3.60;;
13588;SDS011;6865;52.552;13.434;2023-06-14T00:11:28;5.53;;;3.03;;
13588;SDS011;6865;52.552;13.434;2023-06-14T00:13:57;4.77;;;3.40;;
13588;SDS011;6865;52.552;13.434;2023-06-14T00:16:23;5.70;;;3.80;;
13588;SDS011;6865;52.552;13.434;2023-06-14T00:18:50;5.40;;;3.80;;
13588;SDS011;6865;52.552;13.434;2023-06-14T00:21:18;7.13;;;4.10;;
13588;SDS011;6865;52.552;13.434;2023-06-14T00:23:45;10.60;;;4.57;;
13588;SDS011;6865;52.552;13.434;2023-06-14T00:26:12;5.70;;;4.27;;
13588;SDS011;6865;52.552;13.434;2023-06-14T00:28:38;9.03;;;4.50;;
13588;SDS011;6865;52.552;13.434;2023-06-14T00:31:05;7.60;;;4.60;;
13588;SDS011;6865;52.552;13.434;2023-06-14T00:33:32;8.03;;;4.23;;
13588;SDS011;6865;52.552;13.434;2023-06-14T00:35:58;8.03;;;4.40;;
13588;SDS011;6865;52.552;13.434;2023-06-14T00:38:25;5.07;;;3.93;;
13588;SDS011;6865;52.552;13.434;2023-06-14T00:40:52;5.77;;;3.70;;
13588;SDS011;6865;52.552;13.434;2023-06-14T00:43:18;4.40;;;3.77;;
13588;SDS011;6865;52.552;13.434;2023-06-14T00:45:45;5.87;;;3.83;;
13588;SDS011;6865;52.552;13.434;2023-06-14T00:48:12;5.00;;;3.72;;
13588;SDS011;6865;52.552;13.434;2023-06-14T00:50:40;5.37;;;3.37;;
13588;SDS011;6865;52.552;13.434;2023-06-14T00:53:07;6.10;;;3.87;;
13588;SDS011;6865;52.552;13.434;2023-06-14T00:55:34;4.10;;;3.43;;
13588;SDS011;6865;52.552;13.434;2023-06-14T00:58:01;4.73;;;3.43;;
13588;SDS011;6865;52.552;13.434;2023-06-14T01:00:28;4.30;;;3.80;;
13588;SDS011;6865;52.552;13.434;2023-06-14T01:02:54;7.03;;;4.13;;
13588;SDS011;6865;52.552;13.434;2023-06-14T01:05:21;5.67;;;3.47;;
13588;SDS011;6865;52.552;13.434;2023-06-14T01:10:47;4.53;;;3.77;;
13588;SDS011;6865;52.552;13.434;2023-06-14T01:13:35;4.10;;;3.50;;
13588;SDS011;6865;52.552;13.434;2023-06-14T01:16:08;3.67;;;3.23;;
13588;SDS011;6865;52.552;13.434;2023-06-14T01:18:36;6.37;;;3.67;;
13588;SDS011;6865;52.552;13.434;2023-06-14T01:21:03;4.77;;;4.00;;
13588;SDS011;6865;52.552;13.434;2023-06-14T01:23:34;4.67;;;3.50;;
13588;SDS011;6865;52.552;13.434;2023-06-14T01:26:01;6.30;;;3.73;;
13588;SDS011;6865;52.552;13.434;2023-06-14T01:28:29;7.97;;;3.87;;
13588;SDS011;6865;52.552;13.434;2023-06-14T01:30:59;4.60;;;3.80;;
13588;SDS011;6865;52.552;13.434;2023-06-14T01:33:29;3.83;;;3.40;;
13588;SDS011;6865;52.552;13.434;2023-06-14T01:35:58;4.80;;;3.60;;
13588;SDS011;6865;52.552;13.434;2023-06-14T01:38:27;5.17;;;3.30;;
13588;SDS011;6865;52.552;13.434;2023-06-14T01:40:56;4.07;;;3.67;;
13588;SDS011;6865;52.552;13.434;2023-06-14T01:43:25;4.20;;;3.47;;
13588;SDS011;6865;52.552;13.434;2023-06-14T01:45:53;7.57;;;3.63;;
13588;SDS011;6865;52.552;13.434;2023-06-14T01:48:21;4.60;;;3.43;;
13588;SDS011;6865;52.552;13.434;2023-06-14T01:50:49;5.93;;;3.70;;
13588;SDS011;6865;52.552;13.434;2023-06-14T01:53:16;5.27;;;4.30;;
13588;SDS011;6865;52.552;13.434;2023-06-14T01:55:42;5.00;;;4.13;;
13588;SDS011;6865;52.552;13.434;2023-06-14T01:58:10;7.37;;;4.70;;
13588;SDS011;6865;52.552;13.434;2023-06-14T02:00:37;7.70;;;4.13;;
13588;SDS011;6865;52.552;13.434;2023-06-14T02:03:04;6.83;;;4.40;;
13588;SDS011;6865;52.552;13.434;2023-06-14T02:05:30;5.00;;;4.07;;
13588;SDS011;6865;52.552;13.434;2023-06-14T02:07:57;9.67;;;5.40;;
13588;SDS011;6865;52.552;13.434;2023-06-14T02:10:24;5.90;;;4.63;;
13588;SDS011;6865;52.552;13.434;2023-06-14T02:12:51;6.17;;;4.80;;
13588;SDS011;6865;52.552;13.434;2023-06-14T02:15:17;7.30;;;5.00;;
13588;SDS011;6865;52.552;13.434;2023-06-14T02:17:46;10.90;;;4.93;;
13588;SDS011;6865;52.552;13.434;2023-06-14T02:20:16;7.20;;;5.07;;
13588;SDS011;6865;52.552;13.434;2023-06-14T02:22:43;8.37;;;5.67;;
13588;SDS011;6865;52.552;13.434;2023-06-14T02:25:10;8.03;;;5.50;;
13588;SDS011;6865;52.552;13.434;2023-06-14T02:27:37;7.73;;;5.17;;
13588;SDS011;6865;52.552;13.434;2023-06-14T02:30:04;9.73;;;5.50;;
13588;SDS011;6865;52.552;13.434;2023-06-14T02:32:32;5.77;;;5.10;;
13588;SDS011;6865;52.552;13.434;2023-06-14T02:35:00;8.30;;;5.60;;
13588;SDS011;6865;52.552;13.434;2023-06-14T02:37:27;8.60;;;5.53;;
13588;SDS011;6865;52.552;13.434;2023-06-14T02:39:55;9.63;;;5.00;;
13588;SDS011;6865;52.552;13.434;2023-06-14T02:42:22;6.43;;;4.93;;
13588;SDS011;6865;52.552;13.434;2023-06-14T02:44:48;8.60;;;5.53;;
13588;SDS011;6865;52.552;13.434;2023-06-14T02:47:17;5.00;;;4.50;;
13588;SDS011;6865;52.552;13.434;2023-06-14T02:49:44;10.00;;;4.77;;
13588;SDS011;6865;52.552;13.434;2023-06-14T02:52:15;5.87;;;4.50;;
13588;SDS011;6865;52.552;13.434;2023-06-14T02:54:41;8.77;;;4.80;;
13588;SDS011;6865;52.552;13.434;2023-06-14T02:57:08;5.10;;;4.20;;
13588;SDS011;6865;52.552;13.434;2023-06-14T02:59:35;5.90;;;4.10;;
13588;SDS011;6865;52.552;13.434;2023-06-14T03:02:01;5.07;;;4.37;;
13588;SDS011;6865;52.552;13.434;2023-06-14T03:04:29;5.20;;;4.40;;
13588;SDS011;6865;52.552;13.434;2023-06-14T03:06:59;8.03;;;4.20;;
13588;SDS011;6865;52.552;13.434;2023-06-14T03:09:25;6.33;;;4.50;;
13588;SDS011;6865;52.552;13.434;2023-06-14T03:11:52;5.53;;;4.63;;
13588;SDS011;6865;52.552;13.434;2023-06-14T03:14:19;8.40;;;5.30;;
13588;SDS011;6865;52.552;13.434;2023-06-14T03:16:47;5.83;;;4.27;;
13588;SDS011;6865;52.552;13.434;2023-06-14T03:19:16;7.63;;;4.90;;
13588;SDS011;6865;52.552;13.434;2023-06-14T03:21:43;7.93;;;5.40;;
13588;SDS011;6865;52.552;13.434;2023-06-14T03:24:11;6.53;;;4.70;;
13588;SDS011;6865;52.552;13.434;2023-06-14T03:26:37;12.37;;;5.40;;
13588;SDS011;6865;52.552;13.434;2023-06-14T03:29:04;7.30;;;5.17;;
13588;SDS011;6865;52.552;13.434;2023-06-14T03:31:31;6.80;;;5.20;;
13588;SDS011;6865;52.552;13.434;2023-06-14T03:33:59;7.67;;;5.50;;
13588;SDS011;6865;52.552;13.434;2023-06-14T03:36:26;6.63;;;5.33;;
13588;SDS011;6865;52.552;13.434;2023-06-14T03:38:54;8.90;;;6.30;;
13588;SDS011;6865;52.552;13.434;2023-06-14T03:41:21;8.87;;;6.30;;
13588;SDS011;6865;52.552;13.434;2023-06-14T03:43:48;8.47;;;6.30;;
13588;SDS011;6865;52.552;13.434;2023-06-14T03:46:14;10.70;;;6.10;;
13588;SDS011;6865;52.552;13.434;2023-06-14T03:48:41;10.50;;;7.20;;
13588;SDS011;6865;52.552;13.434;2023-06-14T03:51:07;10.40;;;6.77;;
13588;SDS011;6865;52.552;13.434;2023-06-14T03:53:34;5.90;;;5.10;;
13588;SDS011;6865;52.552;13.434;2023-06-14T03:56:09;6.43;;;5.40;;
13588;SDS011;6865;52.552;13.434;2023-06-14T03:58:36;7.67;;;5.43;;
13588;SDS011;6865;52.552;13.434;2023-06-14T04:01:03;9.03;;;5.90;;
13588;SDS011;6865;52.552;13.434;2023-06-14T04:03:30;8.43;;;6.13;;
13588;SDS011;6865;52.552;13.434;2023-06-14T04:05:57;6.43;;;5.63;;
13588;SDS011;6865;52.552;13.434;2023-06-14T04:08:26;8.60;;;5.47;;
13588;SDS011;6865;52.552;13.434;2023-06-14T04:10:52;6.97;;;6.03;;
13588;SDS011;6865;52.552;13.434;2023-06-14T04:13:19;6.50;;;5.23;;
13588;SDS011;6865;52.552;13.434;2023-06-14T04:15:46;11.57;;;5.47;;
13588;SDS011;6865;52.552;13.434;2023-06-14T04:18:12;8.57;;;5.27;;
13588;SDS011;6865;52.552;13.434;2023-06-14T04:20:39;9.57;;;5.20;;
13588;SDS011;6865;52.552;13.434;2023-06-14T04:23:13;8.90;;;5.30;;
13588;SDS011;6865;52.552;13.434;2023-06-14T04:25:41;6.43;;;5.60;;
13588;SDS011;6865;52.552;13.434;2023-06-14T04:28:11;9.23;;;5.80;;
13588;SDS011;6865;52.552;13.434;2023-06-14T04:30:38;11.80;;;6.07;;
13588;SDS011;6865;52.552;13.434;2023-06-14T04:33:06;8.53;;;5.83;;
13588;SDS011;6865;52.552;13.434;2023-06-14T04:35:33;8.40;;;6.23;;
13588;SDS011;6865;52.552;13.434;2023-06-14T04:38:02;12.97;;;6.30;;
13588;SDS011;6865;52.552;13.434;2023-06-14T04:40:32;12.43;;;6.20;;
13588;SDS011;6865;52.552;13.434;2023-06-14T04:42:59;10.27;;;6.30;;
13588;SDS011;6865;52.552;13.434;2023-06-14T04:45:27;8.63;;;6.57;;
13588;SDS011;6865;52.552;13.434;2023-06-14T04:48:00;8.20;;;6.33;;
13588;SDS011;6865;52.552;13.434;2023-06-14T04:50:27;9.57;;;6.93;;
13588;SDS011;6865;52.552;13.434;2023-06-14T04:52:55;10.80;;;8.27;;
13588;SDS011;6865;52.552;13.434;2023-06-14T04:55:23;7.17;;;5.90;;
13588;SDS011;6865;52.552;13.434;2023-06-14T04:57:50;6.93;;;5.30;;
13588;SDS011;6865;52.552;13.434;2023-06-14T05:00:19;9.00;;;5.73;;
13588;SDS011;6865;52.552;13.434;2023-06-14T05:02:46;6.93;;;5.80;;
13588;SDS011;6865;52.552;13.434;2023-06-14T05:05:17;9.83;;;5.67;;
13588;SDS011;6865;52.552;13.434;2023-06-14T05:07:44;7.53;;;6.00;;
13588;SDS011;6865;52.552;13.434;2023-06-14T05:10:11;7.53;;;5.63;;
13588;SDS011;6865;52.552;13.434;2023-06-14T05:12:37;10.03;;;6.10;;
13588;SDS011;6865;52.552;13.434;2023-06-14T05:15:04;8.63;;;6.55;;
13588;SDS011;6865;52.552;13.434;2023-06-14T05:17:31;9.10;;;6.13;;
13588;SDS011;6865;52.552;13.434;2023-06-14T05:19:58;8.83;;;5.37;;
13588;SDS011;6865;52.552;13.434;2023-06-14T05:22:25;7.45;;;5.88;;
13588;SDS011;6865;52.552;13.434;2023-06-14T05:24:51;7.73;;;5.60;;
13588;SDS011;6865;52.552;13.434;2023-06-14T05:27:18;10.50;;;6.40;;
13588;SDS011;6865;52.552;13.434;2023-06-14T05:29:45;7.03;;;6.00;;
13588;SDS011;6865;52.552;13.434;2023-06-14T05:32:11;10.70;;;5.55;;
13588;SDS011;6865;52.552;13.434;2023-06-14T05:34:38;8.73;;;6.22;;
13588;SDS011;6865;52.552;13.434;2023-06-14T05:37:05;10.70;;;7.05;;
13588;SDS011;6865;52.552;13.434;2023-06-14T05:39:31;7.75;;;6.70;;
13588;SDS011;6865;52.552;13.434;2023-06-14T05:41:58;10.32;;;6.80;;
13588;SDS011;6865;52.552;13.434;2023-06-14T05:44:25;8.43;;;6.10;;
13588;SDS011;6865;52.552;13.434;2023-06-14T05:46:52;10.82;;;6.97;;
13588;SDS011;6865;52.552;13.434;2023-06-14T05:49:18;14.05;;;6.57;;
13588;SDS011;6865;52.552;13.434;2023-06-14T05:51:45;9.13;;;6.90;;
13588;SDS011;6865;52.552;13.434;2023-06-14T05:54:12;11.15;;;6.78;;
13588;SDS011;6865;52.552;13.434;2023-06-14T05:56:38;8.32;;;6.55;;
13588;SDS011;6865;52.552;13.434;2023-06-14T05:59:05;7.40;;;6.30;;
13588;SDS011;6865;52.552;13.434;2023-06-14T06:01:32;8.45;;;5.68;;
13588;SDS011;6865;52.552;13.434;2023-06-14T06:04:00;10.15;;;5.43;;
13588;SDS011;6865;52.552;13.434;2023-06-14T06:06:27;10.15;;;6.15;;
13588;SDS011;6865;52.552;13.434;2023-06-14T06:08:53;9.02;;;5.80;;
13588;SDS011;6865;52.552;13.434;2023-06-14T06:11:20;7.68;;;5.70;;
13588;SDS011;6865;52.552;13.434;2023-06-14T06:13:46;8.93;;;5.70;;
13588;SDS011;6865;52.552;13.434;2023-06-14T06:16:14;6.47;;;5.43;;
13588;SDS011;6865;52.552;13.434;2023-06-14T06:18:41;7.38;;;5.22;;
13588;SDS011;6865;52.552;13.434;2023-06-14T06:21:10;8.32;;;5.45;;
13588;SDS011;6865;52.552;13.434;2023-06-14T06:23:37;10.32;;;5.50;;
13588;SDS011;6865;52.552;13.434;2023-06-14T06:26:03;11.20;;;5.72;;
13588;SDS011;6865;52.552;13.434;2023-06-14T06:28:30;9.93;;;5.90;;
13588;SDS011;6865;52.552;13.434;2023-06-14T06:30:57;11.43;;;5.53;;
13588;SDS011;6865;52.552;13.434;2023-06-14T06:33:24;9.07;;;5.68;;
13588;SDS011;6865;52.552;13.434;2023-06-14T06:35:51;12.85;;;5.65;;
13588;SDS011;6865;52.552;13.434;2023-06-14T06:38:17;8.90;;;5.53;;
13588;SDS011;6865;52.552;13.434;2023-06-14T06:40:45;8.05;;;5.15;;
13588;SDS011;6865;52.552;13.434;2023-06-14T06:43:11;12.30;;;5.45;;
13588;SDS011;6865;52.552;13.434;2023-06-14T06:45:40;8.13;;;5.50;;
13588;SDS011;6865;52.552;13.434;2023-06-14T06:48:06;7.30;;;5.03;;
13588;SDS011;6865;52.552;13.434;2023-06-14T06:50:33;7.53;;;4.82;;
13588;SDS011;6865;52.552;13.434;2023-06-14T06:53:00;10.32;;;5.10;;
13588;SDS011;6865;52.552;13.434;2023-06-14T06:55:27;9.38;;;5.63;;
13588;SDS011;6865;52.552;13.434;2023-06-14T06:57:53;8.57;;;5.47;;
13588;SDS011;6865;52.552;13.434;2023-06-14T07:00:20;7.68;;;5.30;;
13588;SDS011;6865;52.552;13.434;2023-06-14T07:02:47;8.45;;;5.30;;
13588;SDS011;6865;52.552;13.434;2023-06-14T07:05:14;9.48;;;5.40;;
13588;SDS011;6865;52.552;13.434;2023-06-14T07:07:41;9.48;;;5.53;;
13588;SDS011;6865;52.552;13.434;2023-06-14T07:10:08;7.72;;;5.00;;
13588;SDS011;6865;52.552;13.434;2023-06-14T07:12:35;5.40;;;4.85;;
13588;SDS011;6865;52.552;13.434;2023-06-14T07:15:08;8.77;;;4.97;;
13588;SDS011;6865;52.552;13.434;2023-06-14T07:17:35;9.07;;;4.95;;
13588;SDS011;6865;52.552;13.434;2023-06-14T07:20:02;8.35;;;5.10;;
13588;SDS011;6865;52.552;13.434;2023-06-14T07:22:40;7.10;;;4.82;;
13588;SDS011;6865;52.552;13.434;2023-06-14T07:25:11;7.78;;;5.22;;
13588;SDS011;6865;52.552;13.434;2023-06-14T07:27:41;7.50;;;5.35;;
13588;SDS011;6865;52.552;13.434;2023-06-14T07:30:09;5.78;;;4.50;;
13588;SDS011;6865;52.552;13.434;2023-06-14T07:32:36;9.23;;;5.05;;
13588;SDS011;6865;52.552;13.434;2023-06-14T07:35:03;8.18;;;4.90;;
13588;SDS011;6865;52.552;13.434;2023-06-14T07:37:30;7.13;;;4.72;;
13588;SDS011;6865;52.552;13.434;2023-06-14T07:39:57;8.13;;;5.50;;
13588;SDS011;6865;52.552;13.434;2023-06-14T07:42:23;13.57;;;5.32;;
13588;SDS011;6865;52.552;13.434;2023-06-14T07:44:50;7.03;;;5.10;;
13588;SDS011;6865;52.552;13.434;2023-06-14T07:47:18;8.88;;;4.95;;
13588;SDS011;6865;52.552;13.434;2023-06-14T07:49:45;8.77;;;4.47;;
13588;SDS011;6865;52.552;13.434;2023-06-14T07:52:11;9.70;;;5.00;;
13588;SDS011;6865;52.552;13.434;2023-06-14T07:54:39;12.10;;;5.10;;
13588;SDS011;6865;52.552;13.434;2023-06-14T07:57:07;7.38;;;4.63;;
13588;SDS011;6865;52.552;13.434;2023-06-14T07:59:35;9.02;;;5.00;;
13588;SDS011;6865;52.552;13.434;2023-06-14T08:02:01;7.38;;;4.60;;
13588;SDS011;6865;52.552;13.434;2023-06-14T08:04:28;6.82;;;4.72;;
13588;SDS011;6865;52.552;13.434;2023-06-14T08:06:55;8.65;;;5.15;;
13588;SDS011;6865;52.552;13.434;2023-06-14T08:09:22;6.88;;;5.05;;
13588;SDS011;6865;52.552;13.434;2023-06-14T08:11:50;9.20;;;4.75;;
13588;SDS011;6865;52.552;13.434;2023-06-14T08:14:17;7.28;;;4.65;;
13588;SDS011;6865;52.552;13.434;2023-06-14T08:16:43;7.45;;;4.75;;
13588;SDS011;6865;52.552;13.434;2023-06-14T08:19:10;9.40;;;4.57;;
13588;SDS011;6865;52.552;13.434;2023-06-14T08:21:37;5.15;;;4.18;;
13588;SDS011;6865;52.552;13.434;2023-06-14T08:24:04;8.15;;;4.57;;
13588;SDS011;6865;52.552;13.434;2023-06-14T08:26:31;11.32;;;4.18;;
13588;SDS011;6865;52.552;13.434;2023-06-14T08:28:58;9.50;;;4.30;;
13588;SDS011;6865;52.552;13.434;2023-06-14T08:31:25;11.77;;;4.40;;
13588;SDS011;6865;52.552;13.434;2023-06-14T08:33:51;9.63;;;4.47;;
13588;SDS011;6865;52.552;13.434;2023-06-14T08:36:18;12.95;;;4.97;;
13588;SDS011;6865;52.552;13.434;2023-06-14T08:38:45;8.05;;;4.72;;
13588;SDS011;6865;52.552;13.434;2023-06-14T08:41:12;6.15;;;4.15;;
13588;SDS011;6865;52.552;13.434;2023-06-14T08:43:42;9.23;;;4.60;;
13588;SDS011;6865;52.552;13.434;2023-06-14T08:46:08;8.32;;;4.15;;
13588;SDS011;6865;52.552;13.434;2023-06-14T08:48:38;6.32;;;4.00;;
13588;SDS011;6865;52.552;13.434;2023-06-14T08:51:05;6.72;;;4.25;;
13588;SDS011;6865;52.552;13.434;2023-06-14T08:53:33;6.20;;;3.75;;
13588;SDS011;6865;52.552;13.434;2023-06-14T08:56:05;5.97;;;3.65;;
13588;SDS011;6865;52.552;13.434;2023-06-14T08:58:33;7.03;;;3.80;;
13588;SDS011;6865;52.552;13.434;2023-06-14T09:01:03;7.38;;;3.70;;
13588;SDS011;6865;52.552;13.434;2023-06-14T09:03:31;4.53;;;3.60;;
13588;SDS011;6865;52.552;13.434;2023-06-14T09:05:59;5.45;;;3.67;;
13588;SDS011;6865;52.552;13.434;2023-06-14T09:08:27;5.28;;;3.60;;
13588;SDS011;6865;52.552;13.434;2023-06-14T09:10:56;7.10;;;4.03;;
13588;SDS011;6865;52.552;13.434;2023-06-14T09:13:23;5.82;;;3.53;;
13588;SDS011;6865;52.552;13.434;2023-06-14T09:15:50;6.68;;;3.55;;
13588;SDS011;6865;52.552;13.434;2023-06-14T09:18:17;4.57;;;3.63;;
13588;SDS011;6865;52.552;13.434;2023-06-14T09:20:44;7.20;;;4.10;;
13588;SDS011;6865;52.552;13.434;2023-06-14T09:23:10;5.80;;;3.78;;
13588;SDS011;6865;52.552;13.434;2023-06-14T09:25:42;9.05;;;4.15;;
13588;SDS011;6865;52.552;13.434;2023-06-14T09:28:10;6.15;;;3.75;;
13588;SDS011;6865;52.552;13.434;2023-06-14T09:30:37;6.40;;;4.03;;
13588;SDS011;6865;52.552;13.434;2023-06-14T09:33:04;4.43;;;4.03;;
13588;SDS011;6865;52.552;13.434;2023-06-14T09:35:31;8.27;;;4.32;;
13588;SDS011;6865;52.552;13.434;2023-06-14T09:37:58;7.50;;;3.92;;
13588;SDS011;6865;52.552;13.434;2023-06-14T09:40:26;7.30;;;4.32;;
13588;SDS011;6865;52.552;13.434;2023-06-14T09:42:53;6.38;;;3.97;;
13588;SDS011;6865;52.552;13.434;2023-06-14T09:45:21;11.40;;;4.13;;
13588;SDS011;6865;52.552;13.434;2023-06-14T09:47:49;9.25;;;4.00;;
13588;SDS011;6865;52.552;13.434;2023-06-14T09:50:32;7.78;;;4.35;;
13588;SDS011;6865;52.552;13.434;2023-06-14T09:53:02;7.95;;;4.07;;
13588;SDS011;6865;52.552;13.434;2023-06-14T09:55:36;6.80;;;4.00;;
13588;SDS011;6865;52.552;13.434;2023-06-14T09:58:04;10.35;;;3.90;;
13588;SDS011;6865;52.552;13.434;2023-06-14T10:00:34;6.63;;;3.67;;
13588;SDS011;6865;52.552;13.434;2023-06-14T10:03:06;6.30;;;3.80;;
13588;SDS011;6865;52.552;13.434;2023-06-14T10:05:47;6.10;;;4.20;;
13588;SDS011;6865;52.552;13.434;2023-06-14T10:08:17;11.18;;;4.38;;
13588;SDS011;6865;52.552;13.434;2023-06-14T10:10:46;5.10;;;3.33;;
13588;SDS011;6865;52.552;13.434;2023-06-14T10:13:13;12.50;;;3.97;;
13588;SDS011;6865;52.552;13.434;2023-06-14T10:24:32;8.35;;;3.72;;
13588;SDS011;6865;52.552;13.434;2023-06-14T10:27:01;4.40;;;3.92;;
13588;SDS011;6865;52.552;13.434;2023-06-14T10:29:28;6.00;;;3.95;;
13588;SDS011;6865;52.552;13.434;2023-06-14T10:31:59;7.45;;;4.28;;
13588;SDS011;6865;52.552;13.434;2023-06-14T10:34:29;6.88;;;4.20;;
13588;SDS011;6865;52.552;13.434;2023-06-14T10:39:32;7.60;;;4.18;;
13588;SDS011;6865;52.552;13.434;2023-06-14T10:42:04;9.73;;;4.40;;
13588;SDS011;6865;52.552;13.434;2023-06-14T10:44:33;6.80;;;4.10;;
13588;SDS011;6865;52.552;13.434;2023-06-14T10:47:11;6.97;;;4.28;;
13588;SDS011;6865;52.552;13.434;2023-06-14T10:49:51;7.50;;;4.20;;
13588;SDS011;6865;52.552;13.434;2023-06-14T10:52:23;7.90;;;4.30;;
13588;SDS011;6865;52.552;13.434;2023-06-14T10:55:04;7.70;;;3.80;;
13588;SDS011;6865;52.552;13.434;2023-06-14T11:00:21;7.35;;;3.78;;
13588;SDS011;6865;52.552;13.434;2023-06-14T11:03:02;6.05;;;4.15;;
13588;SDS011;6865;52.552;13.434;2023-06-14T11:05:55;6.22;;;4.28;;
13588;SDS011;6865;52.552;13.434;2023-06-14T11:10:54;8.82;;;4.22;;
13588;SDS011;6865;52.552;13.434;2023-06-14T11:13:25;9.82;;;4.10;;
13588;SDS011;6865;52.552;13.434;2023-06-14T11:15:52;12.95;;;4.68;;
13588;SDS011;6865;52.552;13.434;2023-06-14T11:18:21;10.15;;;4.63;;
13588;SDS011;6865;52.552;13.434;2023-06-14T11:20:50;7.97;;;3.80;;
13588;SDS011;6865;52.552;13.434;2023-06-14T11:23:17;7.13;;;3.60;;
13588;SDS011;6865;52.552;13.434;2023-06-14T11:25:49;7.82;;;4.18;;
13588;SDS011;6865;52.552;13.434;2023-06-14T11:28:19;5.47;;;3.65;;
13588;SDS011;6865;52.552;13.434;2023-06-14T11:30:48;8.43;;;3.78;;
13588;SDS011;6865;52.552;13.434;2023-06-14T11:33:18;4.90;;;3.75;;
13588;SDS011;6865;52.552;13.434;2023-06-14T11:35:45;9.48;;;4.38;;
13588;SDS011;6865;52.552;13.434;2023-06-14T11:38:12;7.82;;;3.92;;
13588;SDS011;6865;52.552;13.434;2023-06-14T11:40:41;9.20;;;4.30;;
13588;SDS011;6865;52.552;13.434;2023-06-14T11:43:08;6.18;;;3.58;;
13588;SDS011;6865;52.552;13.434;2023-06-14T11:45:36;9.10;;;4.00;;
13588;SDS011;6865;52.552;13.434;2023-06-14T11:48:03;9.48;;;4.35;;
13588;SDS011;6865;52.552;13.434;2023-06-14T11:50:33;7.32;;;3.92;;
13588;SDS011;6865;52.552;13.434;2023-06-14T11:53:05;8.50;;;3.53;;
13588;SDS011;6865;52.552;13.434;2023-06-14T11:55:37;4.50;;;3.58;;
13588;SDS011;6865;52.552;13.434;2023-06-14T11:58:05;6.30;;;3.67;;
13588;SDS011;6865;52.552;13.434;2023-06-14T12:00:34;6.47;;;4.03;;
13588;SDS011;6865;52.552;13.434;2023-06-14T12:03:01;6.68;;;3.80;;
13588;SDS011;6865;52.552;13.434;2023-06-14T12:05:29;8.10;;;3.70;;
13588;SDS011;6865;52.552;13.434;2023-06-14T12:08:00;5.53;;;3.28;;
13588;SDS011;6865;52.552;13.434;2023-06-14T12:10:29;5.60;;;3.80;;
13588;SDS011;6865;52.552;13.434;2023-06-14T12:12:57;7.25;;;3.55;;
13588;SDS011;6865;52.552;13.434;2023-06-14T12:15:28;4.38;;;3.17;;
13588;SDS011;6865;52.552;13.434;2023-06-14T12:17:57;5.10;;;3.38;;
13588;SDS011;6865;52.552;13.434;2023-06-14T12:20:30;8.43;;;3.63;;
13588;SDS011;6865;52.552;13.434;2023-06-14T12:23:02;5.93;;;3.60;;
13588;SDS011;6865;52.552;13.434;2023-06-14T12:25:33;5.55;;;3.25;;
13588;SDS011;6865;52.552;13.434;2023-06-14T12:28:06;5.65;;;3.75;;
13588;SDS011;6865;52.552;13.434;2023-06-14T12:30:35;8.57;;;3.60;;
13588;SDS011;6865;52.552;13.434;2023-06-14T12:33:03;5.00;;;3.50;;
13588;SDS011;6865;52.552;13.434;2023-06-14T12:35:30;4.45;;;3.22;;
13588;SDS011;6865;52.552;13.434;2023-06-14T12:37:57;9.23;;;4.18;;
13588;SDS011;6865;52.552;13.434;2023-06-14T12:40:27;6.75;;;3.65;;
13588;SDS011;6865;52.552;13.434;2023-06-14T12:42:54;7.68;;;3.40;;
13588;SDS011;6865;52.552;13.434;2023-06-14T12:45:24;6.53;;;3.40;;
13588;SDS011;6865;52.552;13.434;2023-06-14T12:47:53;4.97;;;3.47;;
13588;SDS011;6865;52.552;13.434;2023-06-14T12:50:20;7.43;;;3.65;;
13588;SDS011;6865;52.552;13.434;2023-06-14T12:52:51;10.07;;;4.15;;
13588;SDS011;6865;52.552;13.434;2023-06-14T12:55:18;6.47;;;3.58;;
13588;SDS011;6865;52.552;13.434;2023-06-14T12:57:47;6.18;;;3.40;;
13588;SDS011;6865;52.552;13.434;2023-06-14T13:00:16;7.95;;;3.50;;
13588;SDS011;6865;52.552;13.434;2023-06-14T13:02:47;9.30;;;3.65;;
13588;SDS011;6865;52.552;13.434;2023-06-14T13:05:16;6.45;;;3.45;;
13588;SDS011;6865;52.552;13.434;2023-06-14T13:07:44;4.60;;;3.22;;
13588;SDS011;6865;52.552;13.434;2023-06-14T13:10:14;7.70;;;3.80;;
13588;SDS011;6865;52.552;13.434;2023-06-14T13:12:41;4.40;;;3.40;;
13588;SDS011;6865;52.552;13.434;2023-06-14T13:15:08;4.38;;;3.22;;
13588;SDS011;6865;52.552;13.434;2023-06-14T13:17:36;8.00;;;3.70;;
13588;SDS011;6865;52.552;13.434;2023-06-14T13:20:06;7.43;;;3.88;;
13588;SDS011;6865;52.552;13.434;2023-06-14T13:22:34;9.05;;;3.92;;
13588;SDS011;6865;52.552;13.434;2023-06-14T13:25:01;5.15;;;4.00;;
13588;SDS011;6865;52.552;13.434;2023-06-14T13:27:31;5.85;;;3.58;;
13588;SDS011;6865;52.552;13.434;2023-06-14T13:29:58;8.48;;;3.80;;
13588;SDS011;6865;52.552;13.434;2023-06-14T13:32:25;6.05;;;3.45;;
13588;SDS011;6865;52.552;13.434;2023-06-14T13:34:52;5.82;;;3.30;;
13588;SDS011;6865;52.552;13.434;2023-06-14T13:37:19;3.97;;;3.30;;
13588;SDS011;6865;52.552;13.434;2023-06-14T13:39:46;10.88;;;3.88;;
13588;SDS011;6865;52.552;13.434;2023-06-14T13:42:13;5.47;;;3.58;;
13588;SDS011;6865;52.552;13.434;2023-06-14T13:44:39;5.55;;;3.65;;
13588;SDS011;6865;52.552;13.434;2023-06-14T13:47:06;7.43;;;3.50;;
13588;SDS011;6865;52.552;13.434;2023-06-14T13:49:33;9.52;;;3.58;;
13588;SDS011;6865;52.552;13.434;2023-06-14T13:52:01;4.82;;;3.20;;
13588;SDS011;6865;52.552;13.434;2023-06-14T13:54:28;8.65;;;3.20;;
13588;SDS011;6865;52.552;13.434;2023-06-14T13:56:55;4.07;;;3.20;;
13588;SDS011;6865;52.552;13.434;2023-06-14T13:59:22;5.90;;;3.42;;
13588;SDS011;6865;52.552;13.434;2023-06-14T14:01:49;10.02;;;3.78;;
13588;SDS011;6865;52.552;13.434;2023-06-14T14:04:16;9.35;;;3.67;;
13588;SDS011;6865;52.552;13.434;2023-06-14T14:06:43;6.13;;;3.60;;
13588;SDS011;6865;52.552;13.434;2023-06-14T14:09:09;6.55;;;3.40;;
13588;SDS011;6865;52.552;13.434;2023-06-14T14:11:36;9.95;;;3.78;;
13588;SDS011;6865;52.552;13.434;2023-06-14T14:14:05;4.55;;;3.03;;
13588;SDS011;6865;52.552;13.434;2023-06-14T14:16:32;6.07;;;3.90;;
13588;SDS011;6865;52.552;13.434;2023-06-14T14:18:59;6.13;;;3.60;;
13588;SDS011;6865;52.552;13.434;2023-06-14T14:21:26;6.00;;;3.47;;
13588;SDS011;6865;52.552;13.434;2023-06-14T14:23:53;7.85;;;3.53;;
13588;SDS011;6865;52.552;13.434;2023-06-14T14:26:20;9.65;;;3.78;;
13588;SDS011;6865;52.552;13.434;2023-06-14T14:28:46;6.30;;;3.72;;
13588;SDS011;6865;52.552;13.434;2023-06-14T14:31:13;6.70;;;3.90;;
13588;SDS011;6865;52.552;13.434;2023-06-14T14:33:40;4.65;;;3.50;;
13588;SDS011;6865;52.552;13.434;2023-06-14T14:36:07;5.88;;;3.60;;
13588;SDS011;6865;52.552;13.434;2023-06-14T14:38:34;6.75;;;3.90;;
13588;SDS011;6865;52.552;13.434;2023-06-14T14:41:01;6.43;;;4.85;;
13588;SDS011;6865;52.552;13.434;2023-06-14T14:43:28;9.52;;;3.63;;
13588;SDS011;6865;52.552;13.434;2023-06-14T14:45:57;5.47;;;3.72;;
13588;SDS011;6865;52.552;13.434;2023-06-14T14:48:23;5.22;;;3.80;;
13588;SDS011;6865;52.552;13.434;2023-06-14T14:50:50;7.10;;;3.97;;
13588;SDS011;6865;52.552;13.434;2023-06-14T14:53:19;8.55;;;3.70;;
13588;SDS011;6865;52.552;13.434;2023-06-14T14:55:46;8.85;;;3.63;;
13588;SDS011;6865;52.552;13.434;2023-06-14T14:58:14;5.60;;;3.65;;
13588;SDS011;6865;52.552;13.434;2023-06-14T15:00:44;6.43;;;3.53;;
13588;SDS011;6865;52.552;13.434;2023-06-14T15:03:12;10.18;;;4.10;;
13588;SDS011;6865;52.552;13.434;2023-06-14T15:05:39;6.38;;;3.50;;
13588;SDS011;6865;52.552;13.434;2023-06-14T15:08:06;10.95;;;4.25;;
13588;SDS011;6865;52.552;13.434;2023-06-14T15:10:38;5.75;;;3.97;;